KBDR 221945Z 2220/2318 22013KT P6SM FEW250
FM230100 VRB03KT P6SM SKC
FM231300 17010KT P6SM SCT250
From batch tds/tafs/production/2024/4/22/h20_m00_tafs.cache.xml.gz
Issued (30 days ago)
Forecasts
2220/2301 22013KT 6+SM FEW25000

---
fcst_time_to: '2024-04-23T01:00:00Z'
sky_condition:
- sky_cover: FEW
  cloud_base_ft_agl: '25000'
wind_speed_kt: '13'
fcst_time_from: '2024-04-22T20:00:00Z'
wind_dir_degrees: '220'
visibility_statute_mi: 6+

FM230100 VRB03KT 6+SM SKC

---
fcst_time_to: '2024-04-23T13:00:00Z'
sky_condition:
- sky_cover: SKC
wind_speed_kt: '3'
fcst_time_from: '2024-04-23T01:00:00Z'
change_indicator: FM
wind_dir_degrees: VRB
visibility_statute_mi: 6+

FM231300 17010KT 6+SM SCT25000

---
fcst_time_to: '2024-04-23T18:00:00Z'
sky_condition:
- sky_cover: SCT
  cloud_base_ft_agl: '25000'
wind_speed_kt: '10'
fcst_time_from: '2024-04-23T13:00:00Z'
change_indicator: FM
wind_dir_degrees: '170'
visibility_statute_mi: 6+

talk